createdAt,value
2017-08-05T00:00:51.913Z,82.90
2017-08-05T00:03:18.257Z,83.00
2017-08-05T00:05:44.829Z,83.60
2017-08-05T00:08:11.200Z,84.50
2017-08-05T00:10:37.592Z,85.10
2017-08-05T00:13:04.097Z,85.60
2017-08-05T00:15:30.452Z,86.20
2017-08-05T00:17:56.890Z,86.20
2017-08-05T00:20:23.230Z,86.40
2017-08-05T00:22:50.354Z,85.90
2017-08-05T00:25:17.549Z,85.90
2017-08-05T00:27:44.069Z,85.90
2017-08-05T00:30:11.189Z,86.10
2017-08-05T00:32:37.556Z,86.10
2017-08-05T00:35:03.931Z,86.00
2017-08-05T00:37:30.299Z,85.90
2017-08-05T00:39:57.423Z,85.00
2017-08-05T00:42:23.791Z,84.90
2017-08-05T00:44:50.181Z,84.50
2017-08-05T00:47:16.590Z,83.30
2017-08-05T00:49:42.929Z,83.20
2017-08-05T00:52:09.316Z,83.00
2017-08-05T00:54:35.711Z,83.30
2017-08-05T00:57:02.361Z,83.40
2017-08-05T00:59:29.473Z,83.80
2017-08-05T01:01:55.825Z,83.80
2017-08-05T01:04:22.969Z,84.20
2017-08-05T01:06:49.350Z,84.20
2017-08-05T01:09:15.715Z,84.60
2017-08-05T01:11:42.098Z,85.20
2017-08-05T01:14:08.811Z,85.00
2017-08-05T01:16:35.133Z,84.70
2017-08-05T01:19:01.453Z,84.30
2017-08-05T01:21:27.848Z,84.50
2017-08-05T01:23:54.183Z,84.70
2017-08-05T01:26:20.641Z,85.30
2017-08-05T01:28:47.011Z,86.10
2017-08-05T01:31:13.414Z,86.80
2017-08-05T01:33:40.502Z,87.00
2017-08-05T01:36:06.856Z,87.30
2017-08-05T01:38:33.226Z,87.10
2017-08-05T01:40:59.563Z,87.50
2017-08-05T01:43:27.013Z,87.80
2017-08-05T01:45:53.371Z,87.80
2017-08-05T01:48:19.710Z,88.00
2017-08-05T01:50:46.078Z,87.90
2017-08-05T01:53:12.457Z,87.90
2017-08-05T01:55:38.862Z,88.00
2017-08-05T01:58:05.930Z,89.50
2017-08-05T02:00:32.663Z,89.50
2017-08-05T02:02:59.060Z,90.00
2017-08-05T02:05:25.441Z,90.00
2017-08-05T02:07:51.873Z,90.00
2017-08-05T02:10:18.289Z,89.00
2017-08-05T02:12:44.763Z,89.00
2017-08-05T02:15:11.132Z,89.50
2017-08-05T02:17:37.493Z,89.80
2017-08-05T02:20:03.835Z,89.70
2017-08-05T02:22:30.271Z,89.70
2017-08-05T02:24:56.669Z,90.00
2017-08-05T02:27:23.388Z,90.20
2017-08-05T02:29:50.458Z,90.50
2017-08-05T02:32:16.813Z,90.50
2017-08-05T02:34:43.215Z,90.50
2017-08-05T02:37:09.549Z,90.30
2017-08-05T02:39:44.132Z,90.20
2017-08-05T02:42:19.167Z,90.50
2017-08-05T02:44:45.603Z,90.80
2017-08-05T02:47:11.953Z,90.80
2017-08-05T02:49:38.321Z,90.80
2017-08-05T02:52:04.727Z,90.90
2017-08-05T02:54:31.125Z,90.80
2017-08-05T02:56:57.535Z,90.70
2017-08-05T02:59:23.970Z,90.60
2017-08-05T03:01:50.374Z,90.50
2017-08-05T03:04:16.729Z,90.30
2017-08-05T03:06:43.393Z,90.10
2017-08-05T03:09:10.480Z,88.90
2017-08-05T03:11:36.883Z,88.90
2017-08-05T03:14:03.275Z,88.80
2017-08-05T03:16:29.626Z,88.40
2017-08-05T03:18:56.007Z,87.60
2017-08-05T03:21:22.365Z,87.10
2017-08-05T03:23:49.015Z,86.90
2017-08-05T03:26:16.100Z,86.70
2017-08-05T03:28:42.428Z,86.70
2017-08-05T03:31:08.789Z,87.00
2017-08-05T03:33:35.136Z,87.20
2017-08-05T03:36:01.505Z,87.20
2017-08-05T03:38:28.597Z,88.10
2017-08-05T03:40:55.252Z,88.10
2017-08-05T03:43:21.614Z,88.10
2017-08-05T03:45:47.992Z,87.90
2017-08-05T03:48:15.085Z,87.90
2017-08-05T03:50:42.165Z,88.50
2017-08-05T03:53:08.517Z,88.30
2017-08-05T03:55:34.872Z,89.10
2017-08-05T03:58:01.238Z,89.70
2017-08-05T04:00:27.597Z,90.10
2017-08-05T04:02:54.240Z,90.30
2017-08-05T04:05:20.617Z,90.40
2017-08-05T04:07:47.712Z,90.60
2017-08-05T04:10:14.077Z,90.60
2017-08-05T04:12:41.256Z,90.50
2017-08-05T04:15:07.663Z,90.80
2017-08-05T04:17:34.022Z,90.70
2017-08-05T04:20:00.377Z,90.80
2017-08-05T04:22:26.948Z,91.00
2017-08-05T04:24:53.687Z,90.50
2017-08-05T04:27:20.049Z,90.30
2017-08-05T04:29:46.551Z,90.20
2017-08-05T04:32:12.889Z,90.00
2017-08-05T04:34:39.216Z,90.00
2017-08-05T04:37:05.547Z,89.70
2017-08-05T04:39:31.905Z,89.60
2017-08-05T04:41:58.615Z,89.30
2017-08-05T04:44:24.978Z,89.20
2017-08-05T04:46:51.383Z,89.00
2017-08-05T04:49:18.445Z,88.90
2017-08-05T04:51:44.789Z,88.90
2017-08-05T04:54:11.476Z,88.80
2017-08-05T04:56:37.888Z,88.30
2017-08-05T04:59:04.401Z,87.40
2017-08-05T05:01:30.783Z,86.40
2017-08-05T05:03:57.136Z,86.30
2017-08-05T05:06:23.499Z,86.10
2017-08-05T05:08:49.831Z,85.30
2017-08-05T05:11:16.504Z,84.70
2017-08-05T05:13:42.961Z,84.10
2017-08-05T05:16:09.315Z,82.50
2017-08-05T05:18:35.669Z,82.30
2017-08-05T05:21:02.004Z,82.10
2017-08-05T05:23:28.386Z,81.90
2017-08-05T05:25:54.763Z,81.10
2017-08-05T05:28:21.096Z,79.80
2017-08-05T05:30:47.595Z,78.10
2017-08-05T05:33:14.375Z,76.80
2017-08-05T05:35:40.917Z,76.70
2017-08-05T05:38:08.129Z,75.90
2017-08-05T05:40:34.656Z,75.20
2017-08-05T05:43:01.014Z,75.30
2017-08-05T05:45:27.415Z,75.80
2017-08-05T05:47:53.756Z,76.00
2017-08-05T05:50:20.108Z,75.40
2017-08-05T05:52:46.465Z,74.00
2017-08-05T05:55:13.164Z,74.50
2017-08-05T05:57:39.519Z,75.00
2017-08-05T06:00:05.855Z,75.00
2017-08-05T06:02:32.281Z,73.50
2017-08-05T06:04:59.406Z,70.60
2017-08-05T06:07:25.800Z,70.60
2017-08-05T06:09:52.149Z,69.30
2017-08-05T06:12:18.827Z,68.70
2017-08-05T06:14:45.918Z,69.30
2017-08-05T06:17:12.262Z,69.30
2017-08-05T06:19:38.624Z,69.40
2017-08-05T06:22:05.003Z,68.50
2017-08-05T06:24:31.362Z,68.40
2017-08-05T06:26:58.805Z,68.10
2017-08-05T06:29:25.345Z,66.90
2017-08-05T06:31:51.726Z,66.50
2017-08-05T06:34:18.101Z,65.70
2017-08-05T06:36:44.518Z,66.00
2017-08-05T06:39:10.889Z,66.10
2017-08-05T06:41:37.987Z,66.10
2017-08-05T06:44:04.361Z,66.10
2017-08-05T06:46:30.765Z,66.20
2017-08-05T06:48:57.130Z,66.10
2017-08-05T06:51:23.475Z,66.00
2017-08-05T06:53:49.830Z,66.20
2017-08-05T06:56:16.208Z,66.80
2017-08-05T06:58:43.540Z,66.70
2017-08-05T07:01:09.938Z,66.90
2017-08-05T07:03:36.354Z,66.30
2017-08-05T07:06:10.417Z,65.10
2017-08-05T07:08:37.014Z,65.00
2017-08-05T07:11:03.344Z,65.40
2017-08-05T07:13:29.771Z,66.30
2017-08-05T07:15:56.126Z,65.90
2017-08-05T07:18:22.504Z,66.80
2017-08-05T07:20:49.629Z,66.00
2017-08-05T07:23:16.030Z,66.10
2017-08-05T07:25:42.375Z,65.50
2017-08-05T07:28:08.753Z,66.10
2017-08-05T07:30:35.432Z,66.10
2017-08-05T07:33:01.914Z,65.40
2017-08-05T07:35:28.977Z,65.50
2017-08-05T07:37:55.336Z,65.50
2017-08-05T07:40:21.713Z,64.90
2017-08-05T07:42:48.109Z,63.80
2017-08-05T07:45:14.510Z,63.70
2017-08-05T07:47:40.893Z,63.30
2017-08-05T07:50:07.246Z,63.30
2017-08-05T07:52:34.012Z,62.80
2017-08-05T07:55:00.486Z,62.00
2017-08-05T07:57:26.820Z,61.50
2017-08-05T07:59:53.255Z,61.40
2017-08-05T08:02:19.599Z,61.90
2017-08-05T08:04:45.993Z,62.70
2017-08-05T08:07:12.447Z,62.10
2017-08-05T08:09:38.834Z,62.20
2017-08-05T08:12:05.255Z,62.10
2017-08-05T08:14:31.664Z,61.60
2017-08-05T08:16:58.002Z,61.20
2017-08-05T08:19:24.661Z,61.90
2017-08-05T08:21:51.067Z,61.60
2017-08-05T08:24:17.473Z,61.90
2017-08-05T08:26:44.609Z,62.10
2017-08-05T08:29:12.353Z,61.90
2017-08-05T08:31:39.511Z,62.90
2017-08-05T08:34:05.850Z,62.80
2017-08-05T08:36:32.223Z,62.30
2017-08-05T08:38:58.573Z,62.00
2017-08-05T08:41:25.247Z,62.30
2017-08-05T08:43:51.628Z,62.10
2017-08-05T08:46:17.973Z,62.80
2017-08-05T08:48:44.413Z,62.70
2017-08-05T08:51:10.834Z,62.40
2017-08-05T08:53:37.408Z,62.20
2017-08-05T08:56:04.492Z,61.90
2017-08-05T08:58:31.188Z,61.90
2017-08-05T09:00:57.595Z,61.50
2017-08-05T09:03:23.929Z,61.50
2017-08-05T09:05:50.290Z,60.70
2017-08-05T09:08:17.402Z,60.60
2017-08-05T09:10:43.778Z,60.60
2017-08-05T09:13:10.220Z,60.50
2017-08-05T09:15:37.574Z,60.60
2017-08-05T09:18:03.934Z,61.10
2017-08-05T09:20:30.705Z,62.50
2017-08-05T09:22:57.050Z,61.60
2017-08-05T09:25:24.127Z,62.10
2017-08-05T09:27:51.161Z,61.90
2017-08-05T09:30:17.555Z,60.80
2017-08-05T09:32:44.309Z,61.30
2017-08-05T09:35:10.637Z,60.60
2017-08-05T09:37:36.966Z,60.50
2017-08-05T09:40:04.091Z,60.20
2017-08-05T09:42:30.496Z,60.00
2017-08-05T09:44:56.899Z,60.00
2017-08-05T09:47:23.269Z,59.90
2017-08-05T09:49:50.015Z,60.00
2017-08-05T09:52:16.365Z,60.90
2017-08-05T09:54:42.705Z,60.50
2017-08-05T09:57:09.866Z,60.90
2017-08-05T09:59:36.231Z,60.90
2017-08-05T10:02:02.632Z,61.20
2017-08-05T10:04:29.004Z,60.00
2017-08-05T10:06:55.373Z,58.80
2017-08-05T10:09:21.742Z,58.90
2017-08-05T10:11:48.535Z,59.00
2017-08-05T10:14:14.871Z,58.90
2017-08-05T10:16:41.211Z,57.40
2017-08-05T10:19:07.581Z,56.90
2017-08-05T10:21:33.933Z,57.70
2017-08-05T10:24:00.279Z,56.10
2017-08-05T10:26:26.643Z,55.70
2017-08-05T10:28:53.014Z,55.20
2017-08-05T10:31:19.358Z,54.30
2017-08-05T10:33:46.020Z,53.70
2017-08-05T10:36:13.107Z,53.20
2017-08-05T10:38:39.447Z,53.10
2017-08-05T10:41:05.841Z,53.10
2017-08-05T10:43:32.148Z,52.50
2017-08-05T10:45:58.553Z,52.00
2017-08-05T10:48:24.932Z,51.30
2017-08-05T10:50:51.303Z,51.10
2017-08-05T10:53:18.448Z,50.40
2017-08-05T10:55:44.834Z,50.70
2017-08-05T10:58:11.953Z,49.70
2017-08-05T11:00:38.715Z,49.70
2017-08-05T11:03:05.258Z,48.90
2017-08-05T11:05:32.366Z,48.90
2017-08-05T11:07:58.713Z,48.80
2017-08-05T11:10:25.094Z,49.50
2017-08-05T11:12:51.555Z,48.90
2017-08-05T11:15:17.942Z,48.70
2017-08-05T11:17:44.621Z,47.60
2017-08-05T11:20:10.959Z,47.60
2017-08-05T11:22:38.089Z,47.10
2017-08-05T11:25:04.439Z,47.10
2017-08-05T11:27:30.861Z,46.60
2017-08-05T11:29:57.329Z,46.50
2017-08-05T11:32:23.770Z,45.60
2017-08-05T11:34:50.469Z,45.70
2017-08-05T11:37:16.814Z,44.90
2017-08-05T11:39:43.151Z,45.00
2017-08-05T11:42:10.258Z,44.10
2017-08-05T11:44:36.608Z,44.10
2017-08-05T11:47:03.007Z,44.40
2017-08-05T11:49:29.389Z,44.40
2017-08-05T11:51:55.800Z,43.90
2017-08-05T11:54:29.076Z,43.90
2017-08-05T11:56:55.738Z,43.70
2017-08-05T11:59:22.091Z,42.30
2017-08-05T12:01:51.404Z,42.60
2017-08-05T12:04:17.805Z,40.80
2017-08-05T12:06:44.945Z,41.40
2017-08-05T12:09:11.366Z,41.40
2017-08-05T12:11:37.812Z,41.20
2017-08-05T12:14:04.208Z,41.00
2017-08-05T12:16:30.575Z,40.00
2017-08-05T12:18:58.019Z,42.60
2017-08-05T12:21:25.137Z,43.10
2017-08-05T12:23:51.512Z,43.10
2017-08-05T12:26:17.875Z,43.50
2017-08-05T12:28:44.204Z,43.70
2017-08-05T12:31:10.575Z,42.50
2017-08-05T12:33:36.924Z,42.00
2017-08-05T12:36:04.008Z,42.40
2017-08-05T12:38:30.392Z,42.30
2017-08-05T12:40:56.724Z,41.80
2017-08-05T12:43:23.833Z,43.10
2017-08-05T12:45:50.213Z,43.10
2017-08-05T12:48:16.613Z,42.30
2017-08-05T12:50:42.987Z,42.10
2017-08-05T12:53:09.368Z,41.20
2017-08-05T12:55:35.736Z,40.70
2017-08-05T12:58:02.251Z,39.00
2017-08-05T13:00:28.574Z,39.50
2017-08-05T13:02:55.316Z,38.80
2017-08-05T13:05:21.677Z,39.30
2017-08-05T13:07:48.036Z,38.90
2017-08-05T13:10:14.455Z,38.50
2017-08-05T13:12:40.828Z,38.20
2017-08-05T13:15:07.937Z,40.20
2017-08-05T13:17:34.276Z,40.20
2017-08-05T13:20:00.669Z,40.20
2017-08-05T13:22:27.044Z,40.30
2017-08-05T13:24:53.699Z,41.50
2017-08-05T13:27:20.083Z,41.60
2017-08-05T13:29:46.437Z,41.80
2017-08-05T13:32:12.835Z,41.50
2017-08-05T13:34:39.185Z,42.00
2017-08-05T13:37:05.577Z,42.60
2017-08-05T13:39:31.934Z,43.90
2017-08-05T13:41:58.643Z,44.60
2017-08-05T13:44:25.709Z,44.00
2017-08-05T13:46:52.093Z,43.90
2017-08-05T13:49:20.080Z,44.30
2017-08-05T13:51:46.488Z,45.10
2017-08-05T13:54:12.901Z,46.20
2017-08-05T13:56:39.259Z,47.30
2017-08-05T13:59:05.620Z,48.10
2017-08-05T14:01:31.992Z,48.30
2017-08-05T14:03:58.338Z,48.20
2017-08-05T14:06:24.674Z,47.00
2017-08-05T14:08:51.309Z,46.90
2017-08-05T14:11:17.759Z,47.90
2017-08-05T14:13:44.061Z,48.40
2017-08-05T14:16:10.428Z,48.80
2017-08-05T14:18:36.884Z,48.90
2017-08-05T14:21:03.255Z,49.50
2017-08-05T14:23:29.674Z,50.20
2017-08-05T14:25:56.024Z,51.10
2017-08-05T14:28:22.410Z,51.50
2017-08-05T14:30:48.693Z,51.50
2017-08-05T14:33:15.830Z,51.50
2017-08-05T14:35:43.307Z,50.10
2017-08-05T14:38:09.649Z,50.60
2017-08-05T14:40:36.003Z,49.70
2017-08-05T14:43:02.717Z,47.00
2017-08-05T14:45:29.150Z,45.10
2017-08-05T14:47:55.507Z,43.60
2017-08-05T14:50:21.856Z,42.70
2017-08-05T14:52:48.240Z,41.30
2017-08-05T14:55:14.607Z,39.90
2017-08-05T14:57:40.945Z,41.20
2017-08-05T15:00:07.367Z,43.70
2017-08-05T15:02:33.740Z,45.00
2017-08-05T15:05:01.181Z,48.00
2017-08-05T15:07:27.538Z,48.00
2017-08-05T15:09:53.917Z,49.30
2017-08-05T15:12:20.279Z,50.30
2017-08-05T15:14:47.405Z,50.00
2017-08-05T15:17:13.781Z,50.00
2017-08-05T15:19:40.141Z,50.50
2017-08-05T15:22:06.506Z,50.80
2017-08-05T15:24:32.845Z,50.20
2017-08-05T15:27:00.303Z,48.90
2017-08-05T15:29:27.436Z,48.70
2017-08-05T15:31:54.532Z,48.20
2017-08-05T15:34:20.913Z,48.10
2017-08-05T15:36:47.300Z,47.50
2017-08-05T15:39:13.717Z,46.70
2017-08-05T15:41:40.066Z,47.30
2017-08-05T15:44:06.507Z,48.20
2017-08-05T15:46:32.943Z,48.40
2017-08-05T15:48:59.609Z,48.30
2017-08-05T15:51:25.972Z,46.60
2017-08-05T15:53:52.333Z,46.90
2017-08-05T15:56:18.709Z,45.90
2017-08-05T15:58:45.049Z,45.80
2017-08-05T16:01:11.444Z,46.30
2017-08-05T16:03:37.852Z,47.40
2017-08-05T16:06:04.303Z,48.50
2017-08-05T16:08:30.680Z,49.30
2017-08-05T16:10:57.366Z,49.60
2017-08-05T16:13:23.777Z,50.70
2017-08-05T16:15:50.176Z,51.40
2017-08-05T16:18:16.653Z,51.90
2017-08-05T16:20:43.046Z,53.00
2017-08-05T16:23:09.457Z,54.00
2017-08-05T16:25:35.826Z,54.30
2017-08-05T16:28:02.261Z,54.60
2017-08-05T16:30:28.827Z,54.50
2017-08-05T16:32:55.302Z,54.40
2017-08-05T16:35:21.694Z,54.50
2017-08-05T16:37:49.081Z,54.50
2017-08-05T16:40:15.441Z,54.40
2017-08-05T16:42:41.819Z,54.40
2017-08-05T16:45:08.927Z,54.90
2017-08-05T16:47:35.340Z,54.90
2017-08-05T16:50:01.768Z,54.90
2017-08-05T16:52:28.185Z,54.40
2017-08-05T16:54:54.576Z,54.60
2017-08-05T16:57:20.952Z,54.90
2017-08-05T16:59:47.614Z,54.50
2017-08-05T17:02:13.988Z,54.20
2017-08-05T17:04:40.358Z,54.00
2017-08-05T17:07:06.752Z,53.80
2017-08-05T17:09:33.864Z,53.20
2017-08-05T17:12:00.413Z,53.10
2017-08-05T17:14:26.763Z,52.80
2017-08-05T17:16:53.962Z,52.80
2017-08-05T17:19:20.295Z,53.50
2017-08-05T17:21:46.959Z,54.10
2017-08-05T17:24:14.087Z,53.90
2017-08-05T17:26:40.466Z,53.80
2017-08-05T17:29:07.539Z,53.40
2017-08-05T17:31:33.891Z,53.30
2017-08-05T17:34:00.250Z,53.60
2017-08-05T17:36:27.376Z,53.80
2017-08-05T17:38:54.131Z,53.70
2017-08-05T17:41:20.487Z,54.10
2017-08-05T17:43:46.839Z,54.70
2017-08-05T17:46:13.204Z,54.80
2017-08-05T17:48:39.566Z,55.10
2017-08-05T17:51:05.932Z,55.60
2017-08-05T17:53:33.199Z,56.00
2017-08-05T17:55:59.858Z,56.20
2017-08-05T17:58:26.220Z,56.50
2017-08-05T18:00:52.927Z,56.50
2017-08-05T18:03:19.291Z,56.60
2017-08-05T18:05:45.675Z,57.00
2017-08-05T18:08:11.966Z,57.20
2017-08-05T18:10:38.313Z,57.40
2017-08-05T18:13:04.664Z,57.40
2017-08-05T18:15:31.774Z,57.90
2017-08-05T18:17:58.168Z,57.80
2017-08-05T18:20:25.251Z,59.10
2017-08-05T18:22:51.657Z,59.70
2017-08-05T18:25:18.015Z,59.90
2017-08-05T18:27:45.035Z,59.90
2017-08-05T18:30:11.399Z,60.30
2017-08-05T18:32:37.803Z,60.90
2017-08-05T18:35:04.141Z,61.00
2017-08-05T18:37:30.482Z,61.40
2017-08-05T18:39:56.902Z,61.80
2017-08-05T18:42:24.113Z,62.10
2017-08-05T18:44:51.234Z,63.20
2017-08-05T18:47:17.623Z,63.10
2017-08-05T18:49:44.356Z,63.60
2017-08-05T18:52:10.728Z,63.80
2017-08-05T18:54:37.131Z,63.80
2017-08-05T18:57:03.516Z,64.20
2017-08-05T18:59:29.881Z,65.10
2017-08-05T19:01:56.268Z,66.10
2017-08-05T19:04:22.743Z,67.40
2017-08-05T19:06:49.169Z,68.40
2017-08-05T19:09:15.531Z,69.20
2017-08-05T19:11:41.890Z,70.10
2017-08-05T19:14:08.283Z,70.70
2017-08-05T19:16:34.669Z,71.40
2017-08-05T19:19:01.808Z,72.10
2017-08-05T19:21:28.183Z,72.10
2017-08-05T19:23:54.559Z,72.40
2017-08-05T19:26:20.932Z,73.00
2017-08-05T19:28:47.625Z,73.30
2017-08-05T19:31:13.984Z,74.00
2017-08-05T19:33:40.378Z,74.60
2017-08-05T19:36:06.679Z,75.20
2017-08-05T19:38:33.066Z,75.30
2017-08-05T19:40:59.483Z,75.70
2017-08-05T19:43:25.847Z,75.90
2017-08-05T19:45:52.210Z,75.40
2017-08-05T19:48:18.605Z,75.30
2017-08-05T19:50:45.306Z,75.60
2017-08-05T19:53:11.690Z,75.90
2017-08-05T19:55:38.025Z,76.40
2017-08-05T19:58:04.372Z,77.20
2017-08-05T20:00:30.747Z,77.90
2017-08-05T20:02:57.139Z,78.20
2017-08-05T20:05:23.489Z,79.20
2017-08-05T20:07:50.646Z,81.00
2017-08-05T20:10:17.931Z,81.10
2017-08-05T20:12:44.959Z,81.00
2017-08-05T20:15:11.343Z,81.10
2017-08-05T20:17:37.755Z,80.90
2017-08-05T20:20:04.109Z,80.40
2017-08-05T20:22:30.498Z,80.50
2017-08-05T20:24:56.856Z,80.70
2017-08-05T20:27:24.454Z,81.40
2017-08-05T20:29:51.727Z,81.60
2017-08-05T20:32:18.117Z,81.50
2017-08-05T20:34:44.493Z,81.40
2017-08-05T20:37:10.902Z,81.50
2017-08-05T20:39:38.329Z,82.40
2017-08-05T20:42:04.711Z,82.40
2017-08-05T20:44:31.194Z,83.30
2017-08-05T20:46:57.611Z,83.70
2017-08-05T20:49:23.934Z,84.70
2017-08-05T20:51:50.331Z,84.70
2017-08-05T20:54:16.688Z,84.80
2017-08-05T20:56:43.063Z,85.00
2017-08-05T20:59:10.177Z,86.10
2017-08-05T21:01:36.830Z,86.00
2017-08-05T21:04:04.871Z,87.00
2017-08-05T21:06:31.229Z,87.00
2017-08-05T21:08:57.923Z,84.20
2017-08-05T21:11:24.359Z,82.80
2017-08-05T21:13:50.758Z,82.30
2017-08-05T21:16:17.157Z,82.30
2017-08-05T21:18:43.567Z,82.80
2017-08-05T21:21:09.972Z,80.10
2017-08-05T21:23:36.667Z,78.80
2017-08-05T21:26:03.735Z,75.10
2017-08-05T21:28:30.106Z,75.00
2017-08-05T21:30:56.522Z,75.90
2017-08-05T21:33:23.293Z,78.30
2017-08-05T21:35:49.768Z,81.40
2017-08-05T21:38:16.130Z,83.50
2017-08-05T21:40:42.483Z,87.10
2017-08-05T21:43:08.955Z,89.10
2017-08-05T21:45:35.658Z,90.10
2017-08-05T21:48:02.058Z,90.40
2017-08-05T21:50:28.406Z,90.80
2017-08-05T21:52:54.794Z,91.10
2017-08-05T21:55:21.269Z,91.40
2017-08-05T21:57:47.721Z,91.50
2017-08-05T22:00:14.090Z,91.80
2017-08-05T22:02:40.762Z,92.00
2017-08-05T22:05:07.119Z,92.10
2017-08-05T22:07:34.219Z,92.60
2017-08-05T22:10:00.579Z,92.50
2017-08-05T22:12:26.951Z,92.90
2017-08-05T22:14:53.359Z,93.20
2017-08-05T22:17:20.482Z,93.80
2017-08-05T22:19:46.835Z,93.80
2017-08-05T22:22:13.924Z,94.80
2017-08-05T22:24:40.727Z,94.70
2017-08-05T22:27:07.844Z,95.70
2017-08-05T22:29:34.183Z,95.60
2017-08-05T22:32:00.581Z,96.00
2017-08-05T22:34:26.921Z,96.20
2017-08-05T22:36:53.313Z,96.30
2017-08-05T22:39:19.729Z,96.40
2017-08-05T22:41:46.098Z,96.30
2017-08-05T22:44:12.487Z,96.30
2017-08-05T22:46:39.941Z,96.30
2017-08-05T22:49:06.314Z,96.30
2017-08-05T22:51:32.861Z,96.30
2017-08-05T22:53:59.194Z,96.20
2017-08-05T22:56:25.534Z,96.20
2017-08-05T22:58:51.928Z,96.30
2017-08-05T23:01:18.292Z,96.30
2017-08-05T23:03:44.687Z,96.40
2017-08-05T23:06:11.044Z,96.50
2017-08-05T23:08:37.463Z,96.60
2017-08-05T23:11:03.857Z,96.70
2017-08-05T23:13:30.181Z,96.60
2017-08-05T23:15:56.521Z,96.70
2017-08-05T23:18:22.864Z,96.80
2017-08-05T23:20:49.284Z,97.00
2017-08-05T23:23:15.989Z,97.10
2017-08-05T23:25:42.352Z,97.40
2017-08-05T23:28:08.711Z,97.60
2017-08-05T23:30:35.083Z,97.60
2017-08-05T23:33:02.230Z,97.50
2017-08-05T23:35:29.337Z,97.50
2017-08-05T23:37:56.199Z,97.40
2017-08-05T23:40:22.540Z,97.40
2017-08-05T23:42:48.932Z,97.50
2017-08-05T23:45:15.307Z,97.50
2017-08-05T23:47:42.395Z,97.20
2017-08-05T23:50:08.763Z,97.00
2017-08-05T23:52:35.139Z,97.10
2017-08-05T23:55:01.852Z,96.90
2017-08-05T23:57:28.236Z,96.70
2017-08-05T23:59:54.613Z,97.20
